Time;durP1;ratioP1;P1;durP2;ratioP2;P2;SDS_P1;SDS_P2;PMS_P1;PMS_P2;Temp;Humidity;BMP_temperature;BMP_pressure;BME280_temperature;BME280_humidity;BME280_pressure;Samples;Min_cycle;Max_cycle;Signal;HPM_P1;HPM_P2
2023/10/07 00:00:16;;;;;;;9.70;5.13;;;;;;;10.18;100.00;98512.19;5138939;28;20134;-61
2023/10/07 00:02:42;;;;;;;9.20;5.03;;;;;;;10.35;100.00;98498.66;5138668;28;20147;-60
2023/10/07 00:05:15;;;;;;;18.75;6.03;;;;;;;10.23;100.00;98503.63;5138822;28;20363;-60
2023/10/07 00:07:43;;;;;;;10.88;4.45;;;;;;;10.10;100.00;98511.34;5138397;28;20047;-61
2023/10/07 00:10:14;;;;;;;10.43;5.40;;;;;;;10.27;100.00;98501.75;5137869;27;20111;-60
2023/10/07 00:12:40;;;;;;;10.00;4.53;;;;;;;10.51;100.00;98533.25;5138785;28;20137;-61
2023/10/07 00:15:11;;;;;;;11.18;4.57;;;;;;;10.42;100.00;98528.06;5138774;28;20101;-60
2023/10/07 00:17:41;;;;;;;9.88;5.10;;;;;;;10.44;100.00;98560.59;5138596;28;20051;-60
2023/10/07 00:20:10;;;;;;;9.93;4.53;;;;;;;10.70;100.00;98563.16;5138143;28;20054;-60
2023/10/07 00:22:40;;;;;;;8.38;4.93;;;;;;;10.71;100.00;98583.91;5138233;28;20047;-60
2023/10/07 00:25:08;;;;;;;9.02;5.20;;;;;;;10.74;100.00;98599.59;5138378;28;20055;-61
2023/10/07 00:27:38;;;;;;;9.52;5.25;;;;;;;10.56;100.00;98606.88;5138361;28;20043;-62
2023/10/07 00:30:13;;;;;;;17.55;5.35;;;;;;;10.59;100.00;98603.38;5138311;28;20051;-60
2023/10/07 00:32:39;;;;;;;11.00;5.22;;;;;;;10.69;100.00;98593.69;5138409;28;20181;-60
2023/10/07 00:35:06;;;;;;;10.13;5.38;;;;;;;10.56;100.00;98584.94;5138143;28;20051;-61
2023/10/07 00:37:34;;;;;;;12.40;5.50;;;;;;;10.61;100.00;98554.47;5138463;28;20046;-61
2023/10/07 00:40:09;;;;;;;10.98;5.45;;;;;;;10.61;100.00;98570.91;5137897;28;20328;-61
2023/10/07 00:42:37;;;;;;;18.13;5.75;;;;;;;10.94;100.00;98578.22;5138000;28;20058;-61
2023/10/07 00:45:13;;;;;;;10.45;5.03;;;;;;;10.64;100.00;98581.13;5138245;28;20321;-61
2023/10/07 00:47:40;;;;;;;12.52;5.22;;;;;;;10.73;100.00;98580.78;5138078;28;20051;-60
2023/10/07 00:50:09;;;;;;;10.15;5.50;;;;;;;10.94;100.00;98588.41;5138189;28;20047;-61
2023/10/07 00:52:41;;;;;;;13.25;5.57;;;;;;;10.88;100.00;98579.72;5137866;28;20051;-61
2023/10/07 00:55:17;;;;;;;9.38;5.20;;;;;;;10.89;100.00;98556.63;5138141;28;20093;-61
2023/10/07 00:57:48;;;;;;;13.15;5.78;;;;;;;10.76;100.00;98552.59;5137515;28;20043;-61
2023/10/07 01:00:40;;;;;;;12.45;5.32;;;;;;;10.81;100.00;98549.53;5138024;28;20047;-61
2023/10/07 01:03:13;;;;;;;15.30;5.75;;;;;;;10.98;100.00;98529.66;5137457;28;20047;-61
2023/10/07 01:05:44;;;;;;;14.10;5.35;;;;;;;10.96;100.00;98531.19;5137754;28;20055;-60
2023/10/07 01:08:12;;;;;;;9.93;5.30;;;;;;;11.08;100.00;98511.69;5137786;28;20043;-60
2023/10/07 01:10:39;;;;;;;11.30;5.43;;;;;;;11.07;100.00;98493.66;5137625;28;20105;-60
2023/10/07 01:13:25;;;;;;;9.00;5.57;;;;;;;11.07;100.00;98483.47;5137817;28;20051;-62
2023/10/07 01:15:53;;;;;;;12.02;6.28;;;;;;;11.15;100.00;98495.25;5137412;28;20054;-61
2023/10/07 01:18:20;;;;;;;11.88;5.50;;;;;;;11.26;100.00;98481.56;5137521;28;20051;-61
2023/10/07 01:20:58;;;;;;;12.13;5.32;;;;;;;11.25;100.00;98439.63;5137391;27;20194;-61
2023/10/07 01:23:33;;;;;;;9.80;5.10;;;;;;;11.35;100.00;98418.13;5137478;28;20120;-61
2023/10/07 01:25:59;;;;;;;11.73;4.50;;;;;;;11.37;100.00;98389.13;5137708;28;20062;-61
2023/10/07 01:28:26;;;;;;;10.30;5.38;;;;;;;11.57;100.00;98347.59;5137379;28;20051;-60
2023/10/07 01:31:07;;;;;;;15.82;5.05;;;;;;;11.49;100.00;98308.34;5137497;28;20146;-62
2023/10/07 01:33:38;;;;;;;10.45;4.60;;;;;;;11.66;100.00;98280.13;5137173;28;20059;-60
2023/10/07 01:36:07;;;;;;;10.18;4.63;;;;;;;11.62;100.00;98284.81;5137522;28;20055;-61
2023/10/07 01:38:34;;;;;;;7.70;5.03;;;;;;;11.74;100.00;98278.94;5137444;28;20055;-61
2023/10/07 01:41:06;;;;;;;8.15;4.88;;;;;;;11.76;100.00;98262.06;5137056;28;20057;-61
2023/10/07 01:43:36;;;;;;;11.02;5.28;;;;;;;11.77;100.00;98234.22;5137323;28;20051;-61
2023/10/07 01:46:10;;;;;;;12.27;5.40;;;;;;;11.72;100.00;98248.34;5137267;28;20130;-60
2023/10/07 01:48:37;;;;;;;9.40;4.65;;;;;;;11.78;100.00;98248.72;5137248;28;20412;-61
2023/10/07 01:51:05;;;;;;;8.93;4.78;;;;;;;11.89;100.00;98224.78;5137150;28;20115;-61
2023/10/07 01:53:31;;;;;;;8.85;5.35;;;;;;;11.67;100.00;98207.56;5137448;28;20070;-62
2023/10/07 01:55:59;;;;;;;7.88;4.60;;;;;;;11.81;100.00;98217.72;5136872;28;20043;-61
2023/10/07 01:58:25;;;;;;;8.68;5.53;;;;;;;11.74;100.00;98237.75;5137377;28;20327;-60
2023/10/07 02:00:51;;;;;;;10.30;5.05;;;;;;;11.71;100.00;98211.09;5136892;28;20047;-60
2023/10/07 02:03:22;;;;;;;9.95;5.15;;;;;;;11.96;100.00;98185.53;5136964;28;20046;-61
2023/10/07 02:05:48;;;;;;;10.85;5.18;;;;;;;11.69;100.00;98166.75;5137051;28;20078;-60
2023/10/07 02:08:18;;;;;;;8.98;5.15;;;;;;;11.89;100.00;98136.13;5136990;28;20086;-61
2023/10/07 02:10:46;;;;;;;10.43;6.13;;;;;;;11.84;100.00;98161.25;5136703;28;20054;-61
2023/10/07 02:13:14;;;;;;;11.90;5.22;;;;;;;11.86;100.00;98180.88;5136861;28;20091;-60
2023/10/07 02:15:42;;;;;;;9.45;4.93;;;;;;;11.64;100.00;98186.38;5136845;28;20047;-62
2023/10/07 02:18:15;;;;;;;10.75;5.57;;;;;;;11.70;100.00;98208.75;5136658;28;20413;-61
2023/10/07 02:20:49;;;;;;;14.73;4.95;;;;;;;11.60;100.00;98215.03;5137074;28;20294;-61
2023/10/07 02:23:21;;;;;;;6.03;4.95;;;;;;;11.47;100.00;98231.91;5136566;28;20043;-60
2023/10/07 02:25:49;;;;;;;18.58;5.78;;;;;;;11.74;100.00;98256.19;5136446;28;20409;-61
2023/10/07 02:28:16;;;;;;;7.07;5.18;;;;;;;11.66;100.00;98246.38;5136829;28;20380;-61
2023/10/07 02:31:00;;;;;;;11.20;5.95;;;;;;;11.50;100.00;98250.34;5136685;28;20062;-61
2023/10/07 02:33:27;;;;;;;14.97;6.23;;;;;;;11.76;100.00;98229.91;5139316;27;20082;-61
2023/10/07 02:35:55;;;;;;;9.85;4.82;;;;;;;11.47;100.00;98259.34;5139885;28;20376;-60
2023/10/07 02:38:27;;;;;;;8.45;5.70;;;;;;;11.64;100.00;98257.78;5140368;28;20051;-61
2023/10/07 02:40:54;;;;;;;12.45;5.47;;;;;;;11.59;100.00;98262.88;5139842;28;20416;-61
2023/10/07 02:43:21;;;;;;;10.68;5.53;;;;;;;11.73;100.00;98271.09;5140185;28;20078;-61
2023/10/07 02:45:47;;;;;;;8.80;6.05;;;;;;;11.73;100.00;98266.41;5139815;28;20133;-62
2023/10/07 02:48:13;;;;;;;10.48;6.63;;;;;;;11.61;100.00;98250.31;5140133;28;20069;-62
2023/10/07 02:50:40;;;;;;;7.55;5.60;;;;;;;11.60;100.00;98254.25;5139969;28;20051;-60
2023/10/07 02:53:13;;;;;;;11.43;5.75;;;;;;;11.53;100.00;98254.25;5139835;28;20051;-61
2023/10/07 02:55:47;;;;;;;11.70;6.78;;;;;;;11.56;100.00;98256.19;5139958;28;20048;-60
2023/10/07 02:58:24;;;;;;;11.77;5.90;;;;;;;11.40;100.00;98253.09;5139484;28;20374;-61
2023/10/07 03:00:51;;;;;;;16.52;6.68;;;;;;;11.46;100.00;98249.56;5139983;28;20096;-60
2023/10/07 03:03:32;;;;;;;12.90;5.97;;;;;;;11.42;100.00;98239.75;5139567;28;20046;-60
2023/10/07 03:05:59;;;;;;;11.95;6.60;;;;;;;11.46;100.00;98207.59;5139943;28;20051;-60
2023/10/07 03:08:40;;;;;;;9.95;5.65;;;;;;;11.21;100.00;98185.66;5139330;28;20051;-60
2023/10/07 03:11:11;;;;;;;7.90;6.07;;;;;;;11.17;100.00;98151.97;5139355;28;20496;-60
2023/10/07 03:13:39;;;;;;;9.45;6.50;;;;;;;11.21;100.00;98123.34;5139691;28;20051;-61
2023/10/07 03:18:56;;;;;;;15.52;7.43;;;;;;;11.22;100.00;98102.97;5130782;28;20047;-61
2023/10/07 03:21:22;;;;;;;10.90;7.40;;;;;;;11.14;100.00;98074.00;5139364;28;20058;-61
2023/10/07 03:23:48;;;;;;;11.80;6.88;;;;;;;11.23;100.00;98057.09;5139092;28;20401;-60
2023/10/07 03:26:17;;;;;;;19.08;7.43;;;;;;;11.20;100.00;98060.66;5139218;28;20138;-60
2023/10/07 03:28:51;;;;;;;14.00;7.75;;;;;;;11.29;100.00;98039.06;5139531;28;20333;-60
2023/10/07 03:31:19;;;;;;;16.85;9.10;;;;;;;11.61;100.00;98030.72;5139175;28;20043;-60
2023/10/07 03:33:49;;;;;;;15.65;7.05;;;;;;;11.35;100.00;98025.72;5139377;28;20058;-60
2023/10/07 03:36:41;;;;;;;13.00;7.32;;;;;;;11.53;100.00;98034.69;5139444;28;20051;-61
2023/10/07 03:39:23;;;;;;;13.00;7.32;;;;;;;11.38;100.00;98016.69;5138920;28;20062;-61
2023/10/07 03:41:52;;;;;;;9.85;6.72;;;;;;;11.35;100.00;98001.03;5139274;28;20043;-61
2023/10/07 03:44:19;;;;;;;14.18;7.22;;;;;;;11.33;100.00;97987.72;5137552;27;20356;-60
2023/10/07 03:46:48;;;;;;;10.93;7.05;;;;;;;11.16;100.00;97945.47;5139299;28;20051;-60
2023/10/07 03:49:15;;;;;;;16.50;7.75;;;;;;;11.13;100.00;97918.81;5139036;28;20047;-61
2023/10/07 03:51:41;;;;;;;9.40;6.95;;;;;;;11.60;100.00;97891.91;5139013;28;20051;-61
2023/10/07 03:54:11;;;;;;;13.80;7.90;;;;;;;11.54;100.00;97931.94;5138833;28;20393;-62
2023/10/07 03:56:38;;;;;;;12.52;7.22;;;;;;;11.10;100.00;97891.41;5138641;28;20047;-61
2023/10/07 03:59:05;;;;;;;10.73;7.32;;;;;;;11.10;100.00;97864.75;5139073;28;20047;-61
2023/10/07 04:01:32;;;;;;;13.50;7.32;;;;;;;11.29;100.00;97847.78;5138706;28;20047;-61
2023/10/07 04:03:59;;;;;;;12.60;7.03;;;;;;;10.99;100.00;97829.16;5138913;28;20046;-61
2023/10/07 04:06:30;;;;;;;9.63;7.13;;;;;;;10.98;100.00;97794.69;5138557;28;20337;-60
2023/10/07 04:09:05;;;;;;;10.63;7.18;;;;;;;11.26;100.00;97777.28;5138881;28;20054;-61
2023/10/07 04:11:32;;;;;;;14.65;7.13;;;;;;;11.06;100.00;97793.47;5138396;28;20047;-60
2023/10/07 04:14:05;;;;;;;13.52;7.32;;;;;;;11.19;100.00;97793.00;5138393;28;20441;-61
2023/10/07 04:16:33;;;;;;;10.47;7.13;;;;;;;11.34;100.00;97779.97;5138561;28;20107;-62
2023/10/07 04:19:30;;;;;;;9.93;6.40;;;;;;;11.09;100.00;97775.41;5138528;28;20078;-61
2023/10/07 04:21:54;;;;;;;10.10;6.53;;;;;;;11.24;100.00;97749.47;5138473;28;20389;-61
2023/10/07 04:24:21;;;;;;;10.20;7.00;;;;;;;11.21;100.00;97735.78;5138249;28;20141;-61
2023/10/07 04:26:54;;;;;;;10.82;7.53;;;;;;;11.34;100.00;97709.41;5138567;28;20062;-60
2023/10/07 04:29:21;;;;;;;21.73;7.85;;;;;;;11.41;100.00;97692.88;5138014;28;20043;-61
2023/10/07 04:31:51;;;;;;;12.98;7.35;;;;;;;11.25;100.00;97676.16;5138472;28;20058;-60
2023/10/07 04:34:18;;;;;;;11.68;6.63;;;;;;;11.18;100.00;97652.31;5138329;28;20047;-61
2023/10/07 04:37:10;;;;;;;8.85;6.55;;;;;;;10.96;100.00;97618.84;5137977;28;20112;-61
2023/10/07 04:39:38;;;;;;;12.10;6.80;;;;;;;11.20;100.00;97562.19;5138018;28;20138;-61
2023/10/07 04:42:05;;;;;;;9.18;6.63;;;;;;;11.21;100.00;97544.53;5137970;28;20051;-62
2023/10/07 04:47:35;;;;;;;16.13;7.20;;;;;;;11.05;100.00;97482.00;5138013;28;20069;-61
2023/10/07 04:50:15;;;;;;;10.18;6.55;;;;;;;11.29;100.00;97471.16;5137953;28;20063;-60
2023/10/07 04:52:43;;;;;;;10.00;6.32;;;;;;;11.16;100.00;97457.22;5138019;28;20051;-61
2023/10/07 04:55:15;;;;;;;8.30;6.22;;;;;;;11.32;100.00;97434.69;5137106;27;20055;-61
2023/10/07 04:57:44;;;;;;;10.07;6.05;;;;;;;11.26;100.00;97406.16;5137925;28;20317;-60
2023/10/07 05:00:27;;;;;;;7.07;5.60;;;;;;;11.14;100.00;97418.47;5137753;28;20062;-61
2023/10/07 05:02:57;;;;;;;12.50;6.57;;;;;;;11.42;100.00;97384.38;5138078;28;20062;-61
2023/10/07 05:05:24;;;;;;;8.32;5.88;;;;;;;11.37;100.00;97384.84;5137608;28;20336;-61
2023/10/07 05:07:52;;;;;;;10.02;5.60;;;;;;;11.34;100.00;97380.19;5137796;28;20047;-61
2023/10/07 05:10:20;;;;;;;7.40;5.85;;;;;;;11.51;100.00;97367.41;5137768;28;20058;-61
2023/10/07 05:12:51;;;;;;;9.13;5.55;;;;;;;11.39;100.00;97366.00;5137752;28;20047;-60
2023/10/07 05:15:18;;;;;;;7.32;5.38;;;;;;;11.58;100.00;97353.56;5137561;28;20150;-60
2023/10/07 05:17:44;;;;;;;8.07;5.40;;;;;;;11.50;100.00;97361.16;5137493;28;20133;-60
2023/10/07 05:20:27;;;;;;;9.82;6.38;;;;;;;11.62;100.00;97348.78;5137777;28;20054;-60
2023/10/07 05:22:53;;;;;;;7.85;5.18;;;;;;;11.63;100.00;97349.56;5137366;28;20139;-60
2023/10/07 05:25:21;;;;;;;6.65;4.72;;;;;;;11.49;100.00;97339.59;5137807;28;20043;-60
2023/10/07 05:27:47;;;;;;;7.32;4.88;;;;;;;11.72;100.00;97341.59;5137300;28;20135;-60
2023/10/07 05:30:15;;;;;;;7.40;4.63;;;;;;;11.78;100.00;97345.41;5137735;28;20058;-60
2023/10/07 05:32:42;;;;;;;7.53;3.97;;;;;;;11.94;100.00;97358.53;5137298;28;20058;-60
2023/10/07 05:35:08;;;;;;;7.03;4.70;;;;;;;11.84;100.00;97351.22;5137237;28;20190;-60
2023/10/07 05:37:34;;;;;;;5.72;3.85;;;;;;;11.70;100.00;97344.00;5137443;28;20051;-61
2023/10/07 05:40:03;;;;;;;6.05;4.07;;;;;;;11.69;100.00;97323.97;5137295;28;20128;-61
2023/10/07 05:42:29;;;;;;;4.57;3.90;;;;;;;11.75;100.00;97330.56;5137486;28;20313;-60
2023/10/07 05:44:55;;;;;;;6.45;3.78;;;;;;;11.82;100.00;97326.91;5137039;28;20141;-60
2023/10/07 05:47:21;;;;;;;5.03;3.75;;;;;;;11.91;100.00;97316.19;5137477;28;20074;-60
2023/10/07 05:49:47;;;;;;;5.18;3.35;;;;;;;11.88;100.00;97328.03;5136972;28;20138;-62
2023/10/07 05:52:13;;;;;;;3.22;2.80;;;;;;;12.09;100.00;97299.41;5137371;28;20397;-62
2023/10/07 05:54:38;;;;;;;3.45;2.58;;;;;;;12.13;100.00;97313.06;5136978;28;20146;-61
2023/10/07 05:57:07;;;;;;;3.00;2.72;;;;;;;11.99;100.00;97311.34;5137460;28;20074;-61
2023/10/07 05:59:33;;;;;;;3.10;2.78;;;;;;;12.29;100.00;97306.91;5136776;28;20047;-62
2023/10/07 06:02:01;;;;;;;2.67;2.10;;;;;;;12.07;100.00;97314.78;5137100;28;20055;-61
2023/10/07 06:04:28;;;;;;;3.55;2.10;;;;;;;12.16;100.00;97287.50;5137019;28;20062;-61
2023/10/07 06:06:53;;;;;;;2.45;2.25;;;;;;;12.25;100.00;97283.00;5137182;27;20043;-61
2023/10/07 06:09:21;;;;;;;2.22;2.03;;;;;;;12.40;100.00;97282.75;5140605;28;20070;-61
2023/10/07 06:11:48;;;;;;;2.25;1.98;;;;;;;12.47;100.00;97286.13;5140483;28;20054;-62
2023/10/07 06:14:18;;;;;;;2.13;1.92;;;;;;;12.59;100.00;97289.44;5140757;28;20137;-61
2023/10/07 06:16:44;;;;;;;3.60;1.77;;;;;;;12.78;100.00;97307.88;5140339;28;20130;-61
2023/10/07 06:19:13;;;;;;;2.85;1.83;;;;;;;13.04;100.00;97324.66;5140590;28;20113;-60
2023/10/07 06:21:44;;;;;;;2.38;1.77;;;;;;;12.76;100.00;97343.28;5140235;28;20094;-62
2023/10/07 06:24:13;;;;;;;1.58;1.48;;;;;;;12.76;100.00;97351.53;5140618;28;20051;-61
2023/10/07 06:26:43;;;;;;;1.70;1.60;;;;;;;12.87;100.00;97373.34;5140063;28;20454;-62
2023/10/07 06:29:18;;;;;;;2.05;1.60;;;;;;;12.98;100.00;97379.38;5140314;28;20059;-62
2023/10/07 06:31:48;;;;;;;1.40;1.30;;;;;;;12.85;100.00;97403.22;5140369;28;20372;-62
2023/10/07 06:34:15;;;;;;;1.75;1.45;;;;;;;12.89;100.00;97396.44;5140176;28;20138;-60
2023/10/07 06:36:41;;;;;;;1.52;1.40;;;;;;;13.02;100.00;97401.31;5140192;28;20047;-61
2023/10/07 06:39:08;;;;;;;1.98;1.70;;;;;;;13.15;100.00;97419.50;5139924;28;20083;-61
2023/10/07 06:41:35;;;;;;;1.40;1.25;;;;;;;12.88;100.00;97430.66;5140226;28;20047;-61
2023/10/07 06:44:02;;;;;;;1.30;1.20;;;;;;;13.01;100.00;97419.78;5139792;28;20043;-61
2023/10/07 06:46:29;;;;;;;1.88;1.45;;;;;;;12.84;100.00;97421.69;5140142;28;20079;-61
2023/10/07 06:48:56;;;;;;;1.27;1.17;;;;;;;13.10;100.00;97442.03;5139831;28;20066;-61
2023/10/07 06:51:23;;;;;;;2.05;1.30;;;;;;;13.29;100.00;97436.94;5140020;28;20323;-61
2023/10/07 06:53:51;;;;;;;2.47;1.30;;;;;;;13.18;100.00;97453.66;5139951;28;20370;-60
2023/10/07 06:56:20;;;;;;;2.88;1.40;;;;;;;13.14;100.00;97480.47;5139902;28;20055;-62
2023/10/07 06:58:47;;;;;;;1.65;1.50;;;;;;;13.08;100.00;97484.91;5139997;28;20050;-61
2023/10/07 07:01:22;;;;;;;7.10;1.60;;;;;;;12.86;100.00;97479.81;5139758;28;20051;-61
2023/10/07 07:03:48;;;;;;;1.50;1.40;;;;;;;12.94;100.00;97494.97;5140067;28;20107;-61
2023/10/07 07:06:17;;;;;;;2.85;2.00;;;;;;;13.22;100.00;97484.63;5139451;28;20059;-61
2023/10/07 07:08:43;;;;;;;2.78;1.85;;;;;;;13.04;100.00;97497.97;5139870;28;20138;-61
2023/10/07 07:11:10;;;;;;;2.45;1.95;;;;;;;13.12;100.00;97500.13;5139424;28;20541;-62
2023/10/07 07:13:36;;;;;;;5.85;2.15;;;;;;;12.98;100.00;97527.91;5139987;28;20149;-61
2023/10/07 07:16:06;;;;;;;2.53;1.95;;;;;;;13.32;100.00;97524.94;5139282;28;20081;-61
2023/10/07 07:18:32;;;;;;;2.10;1.77;;;;;;;13.21;100.00;97515.31;5139210;27;20047;-61
2023/10/07 07:21:13;;;;;;;4.53;3.00;;;;;;;13.35;100.00;97517.81;5139193;28;20047;-61
2023/10/07 07:23:45;;;;;;;2.22;2.00;;;;;;;13.24;100.00;97533.75;5139248;28;20057;-62
2023/10/07 07:26:11;;;;;;;4.30;2.13;;;;;;;13.43;100.00;97513.75;5139442;28;20134;-61
2023/10/07 07:28:42;;;;;;;2.15;1.95;;;;;;;13.24;100.00;97493.28;5139158;28;20047;-62
2023/10/07 07:31:11;;;;;;;3.35;2.45;;;;;;;13.31;100.00;97493.13;5139435;28;20116;-61
2023/10/07 07:33:38;;;;;;;2.97;2.65;;;;;;;13.30;100.00;97482.56;5139436;28;20051;-62
2023/10/07 07:36:18;;;;;;;5.43;2.20;;;;;;;13.49;100.00;97483.72;5139478;28;20419;-61
2023/10/07 07:38:45;;;;;;;3.00;1.90;;;;;;;13.46;100.00;97484.56;5139211;28;20066;-61
2023/10/07 07:41:26;;;;;;;4.97;2.72;;;;;;;13.53;100.00;97496.22;5130610;28;20134;-61
2023/10/07 07:43:58;;;;;;;3.50;2.05;;;;;;;13.58;100.00;97497.69;5139076;28;20051;-61
2023/10/07 07:46:29;;;;;;;3.05;1.90;;;;;;;13.38;100.00;97506.75;5138855;28;20058;-60
2023/10/07 07:48:56;;;;;;;5.35;2.03;;;;;;;13.50;100.00;97518.31;5139040;28;20047;-61
2023/10/07 07:51:24;;;;;;;4.15;1.90;;;;;;;13.83;100.00;97535.75;5138810;28;20042;-61
2023/10/07 07:53:51;;;;;;;3.53;2.13;;;;;;;13.47;100.00;97533.72;5139119;28;20116;-62
2023/10/07 07:56:18;;;;;;;3.40;2.30;;;;;;;13.40;100.00;97511.84;5138655;28;20051;-62
2023/10/07 07:58:47;;;;;;;2.35;2.15;;;;;;;13.56;100.00;97498.13;5139090;28;20058;-61
2023/10/07 08:01:18;;;;;;;4.28;2.08;;;;;;;13.86;100.00;97493.53;5138560;28;20050;-60
2023/10/07 08:03:44;;;;;;;4.95;2.80;;;;;;;13.54;100.00;97502.50;5138722;28;20074;-61
2023/10/07 08:06:12;;;;;;;4.40;3.00;;;;;;;14.06;100.00;97510.03;5138762;28;20088;-62
2023/10/07 08:08:38;;;;;;;2.38;1.88;;;;;;;14.20;100.00;97528.25;5138717;28;20051;-61
2023/10/07 08:11:05;;;;;;;7.45;2.42;;;;;;;14.03;100.00;97522.69;5138730;28;20141;-63
2023/10/07 08:13:32;;;;;;;3.75;2.05;;;;;;;14.28;100.00;97537.88;5138469;28;20055;-60
2023/10/07 08:16:05;;;;;;;5.40;2.28;;;;;;;14.24;100.00;97537.19;5138521;28;20483;-61
2023/10/07 08:18:31;;;;;;;3.70;2.55;;;;;;;14.11;100.00;97529.59;5138402;28;20104;-61
2023/10/07 08:21:07;;;;;;;2.67;1.70;;;;;;;14.07;100.00;97506.09;5138664;28;20047;-61
2023/10/07 08:23:36;;;;;;;6.50;2.00;;;;;;;14.07;100.00;97489.56;5137950;28;20062;-61
2023/10/07 08:26:08;;;;;;;7.82;2.20;;;;;;;14.10;100.00;97485.94;5138116;28;20043;-61
2023/10/07 08:28:42;;;;;;;4.13;2.20;;;;;;;14.06;100.00;97483.28;5138131;28;20062;-61
2023/10/07 08:31:14;;;;;;;6.03;2.13;;;;;;;13.80;100.00;97446.47;5137324;27;20055;-61
2023/10/07 08:33:40;;;;;;;2.40;2.20;;;;;;;13.91;100.00;97461.97;5138443;28;20051;-60
2023/10/07 08:36:07;;;;;;;4.68;1.92;;;;;;;13.74;100.00;97463.94;5138006;28;20088;-61
2023/10/07 08:38:38;;;;;;;2.05;1.85;;;;;;;13.88;100.00;97458.09;5138196;28;20404;-61
2023/10/07 08:41:04;;;;;;;2.80;2.30;;;;;;;14.05;100.00;97465.16;5137891;28;20051;-62
2023/10/07 08:43:37;;;;;;;2.58;2.10;;;;;;;13.84;100.00;97458.19;5138357;28;20115;-62
2023/10/07 08:46:08;;;;;;;4.82;2.00;;;;;;;13.84;100.00;97466.44;5137902;28;20553;-61
2023/10/07 08:48:38;;;;;;;1.85;1.50;;;;;;;14.25;100.00;97486.38;5137992;28;20055;-62
2023/10/07 08:51:10;;;;;;;6.10;1.75;;;;;;;14.28;100.00;97499.28;5138105;28;20170;-62
2023/10/07 08:53:37;;;;;;;3.00;1.92;;;;;;;14.54;100.00;97536.13;5137926;28;20054;-62
2023/10/07 08:56:08;;;;;;;2.17;1.85;;;;;;;14.55;100.00;97543.19;5138162;28;20051;-61
2023/10/07 08:58:37;;;;;;;2.83;1.55;;;;;;;14.48;100.00;97541.34;5137743;28;20136;-61
2023/10/07 09:01:07;;;;;;;5.53;2.15;;;;;;;14.24;100.00;97539.94;5137941;28;20058;-60
2023/10/07 09:03:34;;;;;;;2.75;2.03;;;;;;;14.45;100.00;97528.41;5137483;28;20043;-61
2023/10/07 09:06:06;;;;;;;2.10;1.90;;;;;;;14.38;100.00;97516.78;5137894;28;20393;-62
2023/10/07 09:08:33;;;;;;;2.63;1.92;;;;;;;15.07;100.00;97509.16;5137570;28;20047;-61
2023/10/07 09:10:59;;;;;;;2.95;2.40;;;;;;;14.92;100.00;97528.06;5137398;28;20083;-61
2023/10/07 09:13:28;;;;;;;5.97;2.53;;;;;;;15.27;100.00;97528.34;5137789;28;20374;-61
2023/10/07 09:15:55;;;;;;;1.73;1.63;;;;;;;15.19;100.00;97507.66;5137451;28;20465;-61
2023/10/07 09:18:28;;;;;;;5.82;1.80;;;;;;;15.23;100.00;97489.03;5137649;28;20075;-61
2023/10/07 09:20:56;;;;;;;6.03;1.77;;;;;;;15.23;100.00;97480.75;5137510;28;20061;-61
2023/10/07 09:23:24;;;;;;;3.10;1.48;;;;;;;15.33;100.00;97362.91;5137622;28;20051;-63
2023/10/07 09:25:51;;;;;;;7.03;2.58;;;;;;;15.36;100.00;97274.50;5137416;28;20051;-61
2023/10/07 09:28:19;;;;;;;5.53;2.15;;;;;;;15.20;100.00;97187.03;5137500;28;20051;-62
2023/10/07 09:30:48;;;;;;;4.28;1.50;;;;;;;15.49;100.00;97089.44;5137277;28;20054;-62
2023/10/07 09:33:17;;;;;;;4.28;1.58;;;;;;;15.67;100.00;96939.69;5137521;28;20103;-62
2023/10/07 09:35:47;;;;;;;3.50;1.38;;;;;;;16.34;100.00;96778.66;5137191;28;20424;-61
2023/10/07 09:38:22;;;;;;;1.23;1.13;;;;;;;16.11;100.00;96555.41;5137141;28;20409;-61
2023/10/07 09:43:37;;;;;;;3.85;1.80;;;;;;;16.90;100.00;96162.31;5140911;28;20050;-61
2023/10/07 09:46:03;;;;;;;6.47;1.20;;;;;;;17.34;100.00;96142.03;5141098;28;20114;-62
2023/10/07 09:48:31;;;;;;;3.92;1.00;;;;;;;17.37;100.00;96094.78;5140894;28;20047;-62
2023/10/07 09:50:58;;;;;;;5.68;1.30;;;;;;;17.46;100.00;96109.72;5141106;28;20173;-61
2023/10/07 09:53:36;;;;;;;2.38;1.10;;;;;;;17.49;100.00;96083.81;5140690;28;20416;-63
2023/10/07 09:56:21;;;;;;;3.63;1.10;;;;;;;16.94;100.00;96094.47;5140841;28;20051;-61
2023/10/07 09:59:13;;;;;;;;;;;;;;;17.68;100.00;96087.81;5141182;28;20099;-59
2023/10/07 10:01:54;;;;;;;3.95;1.10;;;;;;;17.94;100.00;96126.66;5140629;28;20245;-60
2023/10/07 10:04:40;;;;;;;5.38;1.67;;;;;;;17.87;100.00;96149.28;5140871;28;20062;-59
2023/10/07 10:07:34;;;;;;;2.85;1.23;;;;;;;18.07;100.00;96196.38;5140325;28;20055;-59
2023/10/07 10:10:07;;;;;;;2.40;1.20;;;;;;;17.67;100.00;96218.53;5140576;28;20414;-61
2023/10/07 10:12:49;;;;;;;3.28;1.45;;;;;;;17.38;100.00;96184.88;5140728;28;20104;-59
2023/10/07 10:17:56;;;;;;;4.97;1.13;;;;;;;17.97;100.00;96208.84;5139719;28;20099;-59
2023/10/07 10:20:27;;;;;;;5.95;1.20;;;;;;;17.73;100.00;96156.41;5140295;28;20051;-59
2023/10/07 10:22:57;;;;;;;7.78;1.23;;;;;;;17.48;100.00;96152.28;5140110;28;20062;-61
2023/10/07 10:25:28;;;;;;;4.20;1.42;;;;;;;17.49;100.00;96141.97;5140276;28;20092;-60
2023/10/07 10:28:00;;;;;;;2.30;1.10;;;;;;;17.79;100.00;96153.69;5140084;28;20142;-60
2023/10/07 10:30:28;;;;;;;5.15;1.10;;;;;;;17.65;100.00;96149.72;5140457;28;20329;-61
2023/10/07 10:32:57;;;;;;;5.95;1.80;;;;;;;17.28;100.00;96097.66;5139983;28;20058;-61
2023/10/07 10:35:24;;;;;;;3.28;1.08;;;;;;;17.39;100.00;96085.97;5140188;28;20424;-60
2023/10/07 10:37:55;;;;;;;5.70;1.88;;;;;;;17.26;100.00;96102.16;5140109;28;20098;-61
2023/10/07 10:40:21;;;;;;;3.50;1.10;;;;;;;16.93;100.00;96106.78;5140188;28;20043;-60
2023/10/07 10:42:48;;;;;;;5.07;1.02;;;;;;;16.94;100.00;96116.59;5139988;28;20130;-59
2023/10/07 10:45:19;;;;;;;2.33;1.30;;;;;;;17.35;100.00;96096.50;5140334;28;20051;-60
2023/10/07 10:47:50;;;;;;;2.17;1.17;;;;;;;17.24;100.00;96112.97;5139785;28;20050;-61
2023/10/07 10:50:17;;;;;;;8.38;1.17;;;;;;;17.61;100.00;96240.59;5139990;28;20061;-60
2023/10/07 10:52:43;;;;;;;4.47;1.00;;;;;;;17.66;100.00;96267.63;5139402;27;20080;-60
2023/10/07 10:55:11;;;;;;;4.28;1.17;;;;;;;17.30;100.00;96299.31;5139827;28;20055;-60
2023/10/07 10:57:40;;;;;;;11.43;1.75;;;;;;;17.68;100.00;96331.59;5140046;28;20094;-60
2023/10/07 11:00:19;;;;;;;3.92;0.65;;;;;;;17.93;100.00;96376.59;5139752;28;20332;-58
2023/10/07 11:02:45;;;;;;;1.05;0.57;;;;;;;17.93;100.00;96407.09;5139962;28;20051;-61
2023/10/07 11:05:12;;;;;;;2.17;0.57;;;;;;;17.57;100.00;96464.41;5131041;28;20412;-60
2023/10/07 11:07:39;;;;;;;4.68;0.80;;;;;;;17.39;100.00;96380.28;5139999;28;20051;-60
2023/10/07 11:10:07;;;;;;;4.80;0.73;;;;;;;17.07;100.00;96357.06;5139268;28;20062;-60
2023/10/07 11:12:33;;;;;;;14.25;1.80;;;;;;;16.70;100.00;96295.75;5139626;28;20108;-61
2023/10/07 11:15:07;;;;;;;3.13;0.90;;;;;;;16.96;100.00;96278.59;5139719;28;20047;-61
2023/10/07 11:17:37;;;;;;;;;;;;;;;17.09;100.00;96263.25;5139683;28;20051;-61
2023/10/07 11:20:08;;;;;;;3.10;1.02;;;;;;;16.92;100.00;96295.41;5139731;28;19928;-61
2023/10/07 11:22:37;;;;;;;2.05;0.93;;;;;;;17.04;100.00;96246.56;5139428;28;20055;-61
2023/10/07 11:25:06;;;;;;;4.82;1.25;;;;;;;17.00;100.00;96232.91;5139401;28;20405;-61
2023/10/07 11:27:35;;;;;;;5.00;0.90;;;;;;;17.24;100.00;96234.78;5139256;28;20328;-60
2023/10/07 11:30:06;;;;;;;1.17;0.63;;;;;;;17.41;100.00;96257.94;5139609;28;20356;-60
2023/10/07 11:32:33;;;;;;;2.78;1.13;;;;;;;17.09;100.00;96276.31;5139126;28;20058;-59
2023/10/07 11:35:01;;;;;;;3.00;0.73;;;;;;;17.42;100.00;96257.44;5138991;28;20385;-61
2023/10/07 11:37:27;;;;;;;4.13;1.17;;;;;;;17.53;100.00;96283.81;5139109;28;20141;-61
2023/10/07 11:39:54;;;;;;;4.13;0.80;;;;;;;16.74;100.00;96267.91;5139182;28;20138;-60
2023/10/07 11:42:21;;;;;;;3.92;1.40;;;;;;;17.31;100.00;96248.22;5139210;28;20312;-60
2023/10/07 11:44:54;;;;;;;2.35;0.80;;;;;;;16.82;100.00;96166.69;5138983;28;20142;-61
2023/10/07 11:47:20;;;;;;;2.75;1.00;;;;;;;16.58;100.00;96109.47;5139213;28;20130;-59